Time;durP1;ratioP1;P1;durP2;ratioP2;P2;SDS_P1;SDS_P2;PMS_P1;PMS_P2;Temp;Humidity;BMP_temperature;BMP_pressure;BME280_temperature;BME280_humidity;BME280_pressure;Samples;Min_cycle;Max_cycle;Signal;HPM_P1;HPM_P2
2023/05/31 00:02:07;;;;;;;15.93;6.13;;;;;;;11.76;92.47;102363.28;5108967;28;20020;-73
2023/05/31 00:04:34;;;;;;;17.90;6.53;;;;;;;11.73;92.14;102368.84;5116469;28;20047;-73
2023/05/31 00:07:00;;;;;;;18.42;6.72;;;;;;;11.69;92.32;102368.13;5118125;28;20490;-74
2023/05/31 00:09:25;;;;;;;19.50;7.53;;;;;;;11.67;92.45;102367.34;5113510;28;20147;-75
2023/05/31 00:11:51;;;;;;;17.52;7.53;;;;;;;11.68;92.16;102378.97;5111505;28;20091;-72
2023/05/31 00:14:16;;;;;;;17.25;6.88;;;;;;;11.65;92.61;102373.75;5113484;28;20024;-74
2023/05/31 00:16:41;;;;;;;20.15;7.45;;;;;;;11.61;93.49;102373.06;5086088;28;20024;-74
2023/05/31 00:19:07;;;;;;;17.13;7.15;;;;;;;11.58;92.73;102375.03;5118771;28;20042;-75
2023/05/31 00:21:32;;;;;;;19.60;8.18;;;;;;;11.58;93.59;102369.66;5092794;28;20024;-74
2023/05/31 00:23:57;;;;;;;17.50;7.30;;;;;;;11.51;92.62;102367.28;5111864;28;20024;-73
2023/05/31 00:26:22;;;;;;;18.63;7.00;;;;;;;11.49;93.83;102374.59;5096911;28;20582;-73
2023/05/31 00:28:48;;;;;;;19.45;7.65;;;;;;;11.45;94.15;102359.53;5091248;28;20031;-73
2023/05/31 00:31:14;;;;;;;17.38;7.03;;;;;;;11.44;94.44;102367.69;5115777;28;20480;-75
2023/05/31 00:33:39;;;;;;;19.08;7.28;;;;;;;11.43;94.56;102374.88;5115958;28;20041;-76
2023/05/31 00:36:05;;;;;;;20.35;8.27;;;;;;;11.40;94.38;102369.66;5110920;28;20035;-73
2023/05/31 00:38:30;;;;;;;17.33;7.28;;;;;;;11.38;94.86;102366.19;5091684;28;20036;-74
2023/05/31 00:40:55;;;;;;;18.75;7.50;;;;;;;11.37;94.97;102368.00;5093290;28;20016;-73
2023/05/31 00:43:21;;;;;;;18.35;7.43;;;;;;;11.40;94.88;102376.88;5117174;28;20036;-72
2023/05/31 00:45:46;;;;;;;18.08;7.20;;;;;;;11.35;94.89;102372.59;5104693;28;20049;-72
2023/05/31 00:48:11;;;;;;;20.40;8.85;;;;;;;11.34;94.61;102370.00;5122884;28;20040;-72
2023/05/31 00:50:37;;;;;;;19.52;8.00;;;;;;;11.36;94.77;102381.53;5109612;28;20039;-74
2023/05/31 00:53:03;;;;;;;17.73;6.82;;;;;;;11.32;94.79;102370.06;5115370;28;20118;-73
2023/05/31 00:55:29;;;;;;;19.83;8.00;;;;;;;11.32;95.25;102378.16;5124403;28;20104;-73
2023/05/31 00:57:56;;;;;;;18.00;7.47;;;;;;;11.27;96.00;102376.66;5110366;28;20016;-72
2023/05/31 01:00:21;;;;;;;18.05;7.70;;;;;;;11.28;96.35;102375.72;5107368;28;20542;-76
2023/05/31 01:02:50;;;;;;;19.40;7.88;;;;;;;11.26;95.64;102377.59;5093266;28;20062;-75
2023/05/31 01:05:16;;;;;;;19.70;8.15;;;;;;;11.21;96.00;102379.66;5087641;28;20063;-75
2023/05/31 01:07:41;;;;;;;19.08;7.75;;;;;;;11.18;95.46;102381.53;5098234;28;20111;-75
2023/05/31 01:10:07;;;;;;;18.65;7.45;;;;;;;11.17;95.17;102393.28;5092976;28;20033;-75
2023/05/31 01:12:55;;;;;;;18.88;8.07;;;;;;;11.21;95.03;102382.34;5099920;28;20387;-75
2023/05/31 01:15:32;;;;;;;18.13;7.15;;;;;;;11.13;95.85;102386.31;5087187;28;20019;-75
2023/05/31 01:18:25;;;;;;;19.25;7.75;;;;;;;11.16;94.93;102391.53;5101910;28;20024;-75
2023/05/31 01:20:54;;;;;;;18.27;6.75;;;;;;;11.08;95.98;102382.97;5097929;28;20024;-75
2023/05/31 01:23:37;;;;;;;17.92;7.22;;;;;;;11.10;95.49;102388.25;5101990;28;20024;-75
2023/05/31 01:26:35;;;;;;;20.00;7.57;;;;;;;11.09;95.25;102387.41;5085611;28;20070;-75
2023/05/31 01:29:13;;;;;;;19.30;7.97;;;;;;;11.07;95.48;102393.81;5081531;28;20020;-75
2023/05/31 01:31:41;;;;;;;18.13;7.68;;;;;;;11.08;96.28;102384.78;5067400;28;20034;-75
2023/05/31 01:34:07;;;;;;;18.58;7.88;;;;;;;11.05;96.17;102380.44;5098350;28;20020;-75
2023/05/31 01:36:32;;;;;;;18.13;7.55;;;;;;;11.04;96.46;102372.44;5098440;28;20036;-75
2023/05/31 01:38:59;;;;;;;19.65;7.43;;;;;;;11.00;96.24;102377.13;5101056;28;20069;-75
2023/05/31 01:41:26;;;;;;;18.45;7.70;;;;;;;10.97;96.67;102372.75;5082099;28;20081;-75
2023/05/31 01:43:53;;;;;;;19.63;7.97;;;;;;;10.97;96.69;102371.91;5081158;28;20068;-75
2023/05/31 01:46:19;;;;;;;19.38;7.15;;;;;;;10.95;96.69;102373.78;5099098;28;20077;-75
2023/05/31 01:48:46;;;;;;;18.33;6.55;;;;;;;10.92;97.33;102374.81;5078359;28;20024;-75
2023/05/31 01:51:14;;;;;;;18.30;6.82;;;;;;;10.89;96.65;102376.78;5098010;28;20043;-75
2023/05/31 01:53:40;;;;;;;19.35;8.25;;;;;;;10.88;96.58;102378.59;5076844;28;20035;-75
2023/05/31 01:56:07;;;;;;;18.00;7.90;;;;;;;10.88;97.72;102369.66;5099541;28;20048;-75
2023/05/31 01:58:36;;;;;;;19.15;7.70;;;;;;;10.88;97.44;102367.84;5091695;28;20498;-75
2023/05/31 02:01:01;;;;;;;20.23;7.47;;;;;;;10.89;97.49;102366.03;5104005;28;20028;-75
2023/05/31 02:03:27;;;;;;;19.23;7.95;;;;;;;10.92;97.75;102363.16;5097734;28;20352;-75
2023/05/31 02:05:59;;;;;;;20.25;7.57;;;;;;;10.87;97.31;102363.41;5099313;28;20108;-75
2023/05/31 02:08:25;;;;;;;18.23;7.10;;;;;;;10.87;97.63;102366.09;5093943;28;20482;-75
2023/05/31 02:10:51;;;;;;;21.02;8.25;;;;;;;10.83;97.37;102370.78;5082007;28;20024;-75
2023/05/31 02:13:18;;;;;;;20.95;7.78;;;;;;;10.82;98.40;102360.06;5097252;28;20042;-75
2023/05/31 02:15:43;;;;;;;20.70;7.95;;;;;;;10.83;98.45;102359.13;5086970;28;20370;-75
2023/05/31 02:18:08;;;;;;;17.67;7.15;;;;;;;10.82;98.28;102358.25;5076866;28;20028;-75
2023/05/31 02:20:34;;;;;;;19.13;7.45;;;;;;;10.81;98.76;102359.22;5084102;28;20051;-75
2023/05/31 02:22:59;;;;;;;19.00;7.13;;;;;;;10.81;98.58;102356.50;5093733;28;20027;-75
2023/05/31 02:25:25;;;;;;;19.60;7.20;;;;;;;10.81;98.46;102353.81;5082477;28;20035;-75
2023/05/31 02:27:50;;;;;;;20.17;8.07;;;;;;;10.82;98.58;102354.69;5101584;28;20019;-75
2023/05/31 02:30:16;;;;;;;19.50;7.85;;;;;;;10.80;98.80;102354.75;5101296;28;20399;-75
2023/05/31 02:32:42;;;;;;;17.90;7.88;;;;;;;10.79;98.58;102354.84;5099471;28;20464;-75
2023/05/31 02:35:09;;;;;;;20.55;8.15;;;;;;;10.72;99.54;102362.38;5097405;28;20028;-75
2023/05/31 02:37:35;;;;;;;19.42;8.20;;;;;;;10.71;99.12;102355.22;5079500;28;20035;-75
2023/05/31 02:40:08;;;;;;;20.05;7.57;;;;;;;10.72;99.25;102366.84;5093271;28;20035;-75
2023/05/31 02:42:35;;;;;;;19.35;8.05;;;;;;;10.72;99.19;102361.47;5098228;28;20039;-75
2023/05/31 02:45:00;;;;;;;20.23;8.27;;;;;;;10.75;99.46;102358.66;5080243;28;20027;-75
2023/05/31 02:47:27;;;;;;;17.80;7.15;;;;;;;10.73;99.52;102357.84;5105372;28;20027;-75
2023/05/31 02:49:52;;;;;;;20.52;8.30;;;;;;;10.70;99.07;102353.47;5092878;28;20024;-75
2023/05/31 02:52:17;;;;;;;19.73;8.57;;;;;;;10.70;99.04;102355.31;5081281;28;20032;-75
2023/05/31 02:54:43;;;;;;;18.58;7.10;;;;;;;10.69;99.46;102354.44;5074859;28;20094;-75
2023/05/31 02:57:08;;;;;;;20.10;8.35;;;;;;;10.67;99.07;102353.63;5069002;28;20049;-75
2023/05/31 02:59:34;;;;;;;19.30;7.80;;;;;;;10.64;99.32;102354.69;5090266;28;20098;-75
2023/05/31 03:01:59;;;;;;;22.17;8.80;;;;;;;10.64;99.40;102360.06;5076660;28;20024;-75
2023/05/31 03:04:25;;;;;;;19.95;8.43;;;;;;;10.62;100.00;102355.69;5089114;28;20088;-75
2023/05/31 03:06:50;;;;;;;20.20;7.93;;;;;;;10.62;99.75;102358.38;5072462;28;20028;-75
2023/05/31 03:09:16;;;;;;;20.52;8.60;;;;;;;10.61;99.54;102367.41;5084631;28;20482;-75
2023/05/31 03:11:45;;;;;;;19.73;8.27;;;;;;;10.59;99.57;102361.22;5082740;28;20443;-75
2023/05/31 03:14:11;;;;;;;19.90;7.80;;;;;;;10.59;99.65;102363.91;5092662;28;20529;-75
2023/05/31 03:16:36;;;;;;;19.17;8.07;;;;;;;10.56;99.57;102362.25;5073581;28;20024;-75
2023/05/31 03:19:02;;;;;;;19.50;8.20;;;;;;;10.57;99.57;102360.41;5099947;28;20066;-75
2023/05/31 03:21:27;;;;;;;19.13;8.13;;;;;;;10.54;99.33;102363.25;5099308;28;20016;-75
2023/05/31 03:23:52;;;;;;;19.50;8.20;;;;;;;10.52;99.56;102359.78;5095664;28;20039;-75
2023/05/31 03:26:18;;;;;;;19.95;7.95;;;;;;;10.47;99.69;102357.34;5094823;28;20049;-75
2023/05/31 03:28:43;;;;;;;20.00;8.00;;;;;;;10.46;99.54;102356.44;5092215;28;20024;-75
2023/05/31 03:31:08;;;;;;;19.00;7.82;;;;;;;10.44;100.00;102355.66;5080664;28;20058;-75
2023/05/31 03:33:35;;;;;;;19.25;8.38;;;;;;;10.43;100.00;102353.03;5093982;28;20489;-75
2023/05/31 03:36:01;;;;;;;20.88;7.93;;;;;;;10.41;100.00;102358.50;5090019;28;20097;-75
2023/05/31 03:38:27;;;;;;;20.50;9.13;;;;;;;10.38;99.79;102355.06;5102157;28;20099;-75
2023/05/31 03:40:52;;;;;;;19.02;8.15;;;;;;;10.34;100.00;102356.16;5083458;28;20024;-75
2023/05/31 03:43:18;;;;;;;21.05;9.30;;;;;;;10.32;100.00;102351.72;5082355;28;20058;-75
2023/05/31 03:45:43;;;;;;;20.05;8.57;;;;;;;10.34;100.00;102346.28;5093414;28;20040;-75
2023/05/31 03:48:08;;;;;;;18.75;7.97;;;;;;;10.34;100.00;102365.13;5084160;28;20028;-75
2023/05/31 03:50:34;;;;;;;19.92;8.80;;;;;;;10.32;100.00;102356.19;5103296;28;20020;-75
2023/05/31 03:52:59;;;;;;;20.35;8.57;;;;;;;10.34;100.00;102351.66;5080275;28;20023;-75
2023/05/31 03:55:25;;;;;;;22.30;9.30;;;;;;;10.35;100.00;102363.28;5072279;28;20044;-75
2023/05/31 03:57:50;;;;;;;20.20;8.25;;;;;;;10.34;100.00;102362.41;5074922;28;20020;-75
2023/05/31 04:00:16;;;;;;;20.50;8.07;;;;;;;10.32;100.00;102362.47;5073051;28;20048;-75
2023/05/31 04:02:41;;;;;;;22.17;8.93;;;;;;;10.34;100.00;102357.06;5090624;28;20020;-75
2023/05/31 04:05:07;;;;;;;22.20;8.75;;;;;;;10.34;100.00;102359.72;5074096;28;20027;-75
2023/05/31 04:07:32;;;;;;;20.88;8.77;;;;;;;10.36;100.00;102351.59;5102570;28;20034;-75
2023/05/31 04:09:58;;;;;;;21.10;8.93;;;;;;;10.36;100.00;102346.22;5100727;28;20064;-75
2023/05/31 04:12:23;;;;;;;20.80;9.20;;;;;;;10.37;100.00;102346.16;5080400;28;20056;-75
2023/05/31 04:14:48;;;;;;;23.60;9.30;;;;;;;10.36;100.00;102360.53;5104493;28;20028;-75
2023/05/31 04:17:14;;;;;;;21.00;9.68;;;;;;;10.37;100.00;102354.22;5090221;28;20088;-75
2023/05/31 04:19:39;;;;;;;21.05;8.80;;;;;;;10.39;100.00;102355.00;5092060;28;20028;-75
2023/05/31 04:22:04;;;;;;;22.15;9.93;;;;;;;10.38;100.00;102347.91;5098941;28;20412;-75
2023/05/31 04:24:30;;;;;;;21.30;9.00;;;;;;;10.40;100.00;102351.38;5086994;28;20028;-75
2023/05/31 04:26:56;;;;;;;21.80;9.57;;;;;;;10.42;100.00;102354.84;5067240;28;20391;-75
2023/05/31 04:29:21;;;;;;;21.63;9.48;;;;;;;10.44;100.00;102358.34;5059804;28;20462;-75
2023/05/31 04:31:46;;;;;;;22.20;9.68;;;;;;;10.43;100.00;102345.84;5065492;28;20032;-75
2023/05/31 04:34:18;;;;;;;24.48;10.40;;;;;;;10.45;100.00;102354.72;5066691;28;20052;-75
2023/05/31 04:36:48;;;;;;;20.77;8.48;;;;;;;10.49;100.00;102356.28;5068889;28;20053;-75
2023/05/31 04:39:14;;;;;;;;;;;;;;;10.62;100.00;102350.31;5094552;28;20114;-75
2023/05/31 04:41:40;;;;;;;24.23;10.98;;;;;;;10.54;100.00;102358.78;5091531;28;20403;-75
2023/05/31 04:44:05;;;;;;;23.73;10.88;;;;;;;10.57;100.00;102360.41;5088505;28;20020;-75
2023/05/31 04:46:32;;;;;;;23.30;10.63;;;;;;;10.62;100.00;102363.78;5069377;28;20031;-75
2023/05/31 04:48:57;;;;;;;22.77;11.20;;;;;;;10.65;100.00;102361.78;5070622;28;20160;-75
2023/05/31 04:51:23;;;;;;;24.92;10.85;;;;;;;10.70;100.00;102364.25;5086684;28;20025;-75
2023/05/31 04:53:48;;;;;;;23.20;10.82;;;;;;;10.71;100.00;102363.31;5098319;28;20031;-75
2023/05/31 04:56:14;;;;;;;23.25;10.57;;;;;;;10.78;100.00;102353.13;5099819;28;20050;-75
2023/05/31 04:58:40;;;;;;;26.52;12.63;;;;;;;10.82;100.00;102347.50;5070705;28;20534;-75
2023/05/31 05:01:06;;;;;;;22.85;11.40;;;;;;;10.88;100.00;102351.72;5073713;28;20052;-75
2023/05/31 05:03:32;;;;;;;24.25;11.48;;;;;;;10.97;100.00;102347.69;5081277;28;20344;-75
2023/05/31 05:06:01;;;;;;;26.23;11.60;;;;;;;11.02;100.00;102349.19;5071767;28;20020;-75
2023/05/31 05:08:26;;;;;;;24.00;12.73;;;;;;;11.08;100.00;102350.69;5068377;28;20044;-75
2023/05/31 05:10:51;;;;;;;25.38;11.82;;;;;;;11.14;100.00;102358.47;5096179;28;20491;-75
2023/05/31 05:13:17;;;;;;;25.90;13.05;;;;;;;11.22;100.00;102354.50;5082830;28;20118;-75
2023/05/31 05:15:42;;;;;;;27.15;12.45;;;;;;;11.29;100.00;102363.97;5092441;28;20047;-75
2023/05/31 05:18:07;;;;;;;26.20;13.48;;;;;;;11.36;100.00;102357.31;5077118;28;20024;-76
2023/05/31 05:20:32;;;;;;;29.60;14.70;;;;;;;11.41;100.00;102360.66;5083789;28;20080;-75
2023/05/31 05:23:01;;;;;;;27.17;13.68;;;;;;;11.48;100.00;102361.19;5082409;28;20016;-76
2023/05/31 05:25:27;;;;;;;25.55;13.32;;;;;;;11.55;100.00;102354.50;5080033;28;20047;-76
2023/05/31 05:27:52;;;;;;;27.98;13.85;;;;;;;11.64;100.00;102366.63;5101148;28;20024;-76
2023/05/31 05:30:17;;;;;;;27.02;13.65;;;;;;;11.68;100.00;102363.72;5083693;28;20039;-76
2023/05/31 05:32:43;;;;;;;29.67;13.77;;;;;;;11.76;100.00;102360.59;5102260;28;20106;-75
2023/05/31 05:35:08;;;;;;;27.23;14.27;;;;;;;11.80;100.00;102372.06;5103772;28;20451;-76
2023/05/31 05:37:33;;;;;;;25.27;12.38;;;;;;;11.86;100.00;102364.53;5105757;28;20483;-76
2023/05/31 05:39:59;;;;;;;27.95;14.10;;;;;;;11.92;100.00;102366.03;5076731;28;20020;-76
2023/05/31 05:42:25;;;;;;;26.23;12.95;;;;;;;11.98;100.00;102364.84;5072747;28;20048;-76
2023/05/31 05:44:51;;;;;;;27.73;13.90;;;;;;;12.04;100.00;102365.38;5086333;28;20055;-76
2023/05/31 05:47:16;;;;;;;26.42;12.75;;;;;;;12.12;100.00;102366.75;5073356;28;20447;-76
2023/05/31 05:49:41;;;;;;;26.17;13.13;;;;;;;12.15;100.00;102367.47;5093717;28;20111;-76
2023/05/31 05:52:07;;;;;;;28.17;13.38;;;;;;;12.17;100.00;102365.56;5085597;28;20042;-76
2023/05/31 05:54:32;;;;;;;27.58;12.98;;;;;;;12.23;100.00;102361.66;5090778;28;20039;-76
2023/05/31 05:56:57;;;;;;;29.33;14.57;;;;;;;12.28;100.00;102361.38;5074616;28;20047;-76
2023/05/31 05:59:23;;;;;;;26.77;13.18;;;;;;;12.34;100.00;102361.94;5090074;28;20047;-75
2023/05/31 06:01:48;;;;;;;27.80;14.98;;;;;;;12.42;100.00;102364.19;5068087;28;20365;-75
2023/05/31 06:04:13;;;;;;;29.80;13.65;;;;;;;12.50;100.00;102372.69;5089248;28;20024;-76
2023/05/31 06:06:39;;;;;;;25.70;13.45;;;;;;;12.55;100.00;102372.44;5090308;28;20024;-76
2023/05/31 06:09:04;;;;;;;29.05;14.93;;;;;;;12.61;100.00;102363.09;5088814;28;20039;-79
2023/05/31 06:11:29;;;;;;;28.88;13.25;;;;;;;12.67;100.00;102368.16;5091932;28;20027;-78
2023/05/31 06:13:57;;;;;;;27.70;14.02;;;;;;;12.73;100.00;102362.41;5094189;28;20028;-76
2023/05/31 06:16:24;;;;;;;27.70;14.18;;;;;;;12.79;99.79;102366.59;5106796;28;20030;-75
2023/05/31 06:18:49;;;;;;;26.85;14.15;;;;;;;12.84;99.77;102361.78;5090270;28;20066;-76
2023/05/31 06:21:15;;;;;;;26.55;13.70;;;;;;;12.92;100.00;102368.44;5096839;28;20118;-77
2023/05/31 06:23:41;;;;;;;25.77;13.18;;;;;;;13.01;100.00;102368.88;5100100;28;20027;-73
2023/05/31 06:26:06;;;;;;;26.20;14.57;;;;;;;13.06;98.61;102372.16;5100688;28;20035;-75
2023/05/31 06:28:32;;;;;;;25.63;13.55;;;;;;;13.11;100.00;102370.94;5078936;28;20107;-77
2023/05/31 06:30:59;;;;;;;28.50;14.50;;;;;;;13.18;99.43;102371.44;5090105;28;20107;-76
2023/05/31 06:33:24;;;;;;;25.55;12.82;;;;;;;13.24;99.83;102376.47;5079985;28;20129;-76
2023/05/31 06:35:50;;;;;;;27.13;13.75;;;;;;;13.32;99.88;102383.25;5091809;28;20031;-76
2023/05/31 06:38:16;;;;;;;28.33;13.85;;;;;;;13.39;99.48;102382.78;5082676;28;20023;-76
2023/05/31 06:40:43;;;;;;;27.08;13.93;;;;;;;13.43;98.57;102380.78;5098344;28;20049;-76
2023/05/31 06:43:08;;;;;;;25.75;13.15;;;;;;;13.47;98.94;102382.34;5079961;28;20036;-76
2023/05/31 06:45:33;;;;;;;25.92;13.30;;;;;;;13.54;99.09;102380.97;5099943;28;20533;-76
2023/05/31 06:47:59;;;;;;;34.35;14.02;;;;;;;13.60;99.13;102375.22;5101941;28;20077;-76
2023/05/31 06:50:24;;;;;;;25.48;12.98;;;;;;;13.67;98.05;102380.25;5083838;28;20457;-76
2023/05/31 06:52:49;;;;;;;27.63;13.50;;;;;;;13.70;96.77;102380.91;5081094;28;20087;-76
2023/05/31 06:55:15;;;;;;;28.42;13.50;;;;;;;13.74;97.80;102371.66;5082163;28;20054;-77
2023/05/31 06:57:40;;;;;;;27.77;13.18;;;;;;;13.82;96.49;102379.28;5101415;28;20036;-76
2023/05/31 07:00:07;;;;;;;28.88;14.13;;;;;;;13.86;97.11;102374.56;5071158;28;20476;-76
2023/05/31 07:02:32;;;;;;;28.50;13.82;;;;;;;13.94;95.01;102383.91;5077421;28;20035;-76
2023/05/31 07:04:59;;;;;;;29.88;13.13;;;;;;;14.02;97.88;102382.56;5081526;28;20020;-76
2023/05/31 07:07:26;;;;;;;30.85;14.57;;;;;;;14.09;97.43;102383.91;5079176;28;20026;-76
2023/05/31 07:09:51;;;;;;;25.15;12.48;;;;;;;14.18;95.51;102385.16;5080250;28;20035;-76
2023/05/31 07:12:16;;;;;;;23.63;11.18;;;;;;;14.22;93.35;102382.16;5081879;28;20369;-76
2023/05/31 07:14:42;;;;;;;25.48;13.07;;;;;;;14.25;93.12;102371.16;5075769;28;20027;-76
2023/05/31 07:17:07;;;;;;;25.35;12.90;;;;;;;14.31;91.92;102375.28;5074861;28;20039;-76
2023/05/31 07:19:42;;;;;;;31.98;13.10;;;;;;;14.38;92.54;102367.63;5101272;28;20063;-76
2023/05/31 07:22:08;;;;;;;25.20;12.25;;;;;;;14.46;94.84;102368.88;5082513;28;20444;-76
2023/05/31 07:24:33;;;;;;;28.63;14.05;;;;;;;14.54;93.59;102376.50;5075838;28;20625;-76
2023/05/31 07:26:58;;;;;;;27.02;14.00;;;;;;;14.59;92.53;102368.06;5099197;28;20066;-76
2023/05/31 07:29:23;;;;;;;27.83;13.35;;;;;;;14.62;92.00;102362.50;5081384;28;20028;-76
2023/05/31 07:31:49;;;;;;;27.08;12.82;;;;;;;14.70;94.38;102354.75;5103201;28;20393;-76
2023/05/31 07:34:14;;;;;;;27.75;13.02;;;;;;;14.76;92.55;102361.56;5078809;28;20024;-76
2023/05/31 07:36:41;;;;;;;30.02;12.30;;;;;;;14.79;91.02;102370.34;5084778;28;20445;-76
2023/05/31 07:39:06;;;;;;;26.23;10.90;;;;;;;14.84;90.94;102367.34;5085233;28;20495;-77
2023/05/31 07:41:31;;;;;;;24.65;11.25;;;;;;;14.88;88.86;102360.75;5082744;28;20043;-76
2023/05/31 07:43:56;;;;;;;26.15;13.32;;;;;;;14.93;89.51;102366.69;5093447;28;20020;-76
2023/05/31 07:46:22;;;;;;;25.10;13.25;;;;;;;14.99;89.62;102357.31;5070951;28;20038;-76
2023/05/31 07:48:47;;;;;;;24.38;12.77;;;;;;;15.05;89.29;102356.88;5100033;28;20035;-76
2023/05/31 07:51:13;;;;;;;28.65;12.50;;;;;;;15.10;87.34;102356.59;5084675;28;20070;-77
2023/05/31 07:53:39;;;;;;;26.17;11.40;;;;;;;15.16;87.97;102353.44;5080769;28;20031;-76
2023/05/31 07:56:05;;;;;;;25.33;11.48;;;;;;;15.19;88.28;102347.81;5073285;28;20031;-76
2023/05/31 07:58:30;;;;;;;25.85;11.80;;;;;;;15.27;86.83;102353.59;5082251;28;20424;-76
2023/05/31 08:00:56;;;;;;;25.33;12.32;;;;;;;15.31;85.70;102348.81;5101552;28;20108;-76
2023/05/31 08:03:22;;;;;;;21.75;9.43;;;;;;;15.35;87.04;102355.75;5081082;28;20561;-79
2023/05/31 08:05:49;;;;;;;29.65;11.07;;;;;;;15.41;88.37;102343.63;5099478;28;20328;-78
2023/05/31 08:08:15;;;;;;;28.25;11.73;;;;;;;15.47;87.75;102344.03;5081660;28;20028;-78
2023/05/31 08:10:40;;;;;;;27.33;12.68;;;;;;;15.51;87.41;102334.72;5081383;28;20030;-78
2023/05/31 08:13:06;;;;;;;25.50;12.30;;;;;;;15.58;87.49;102335.19;5086577;28;20065;-78
2023/05/31 08:15:32;;;;;;;25.73;10.65;;;;;;;15.67;89.66;102339.94;5100156;28;20023;-81
2023/05/31 08:17:58;;;;;;;27.23;11.20;;;;;;;15.72;84.42;102343.19;5098384;28;20032;-78
2023/05/31 08:20:24;;;;;;;21.98;10.43;;;;;;;15.77;85.04;102340.16;5085162;28;20103;-76
2023/05/31 08:22:50;;;;;;;24.30;9.43;;;;;;;15.81;85.28;102335.41;5099015;28;20094;-77
2023/05/31 08:25:16;;;;;;;24.92;10.77;;;;;;;15.87;84.95;102340.38;5090108;28;20055;-80
2023/05/31 08:27:42;;;;;;;23.08;9.85;;;;;;;15.94;86.45;102346.22;5078366;28;20066;-79
2023/05/31 08:30:13;;;;;;;26.45;11.48;;;;;;;16.01;85.00;102342.09;5087472;28;20145;-83
2023/05/31 08:32:40;;;;;;;25.67;13.30;;;;;;;16.10;85.49;102340.56;5090106;28;20129;-81
2023/05/31 08:35:06;;;;;;;24.08;11.60;;;;;;;16.17;85.91;102345.41;5098116;28;20020;-81
2023/05/31 08:37:33;;;;;;;25.50;9.38;;;;;;;16.19;83.81;102335.34;5078171;28;20139;-75
2023/05/31 08:39:58;;;;;;;24.77;11.20;;;;;;;16.27;82.56;102334.75;5091659;28;20135;-75
2023/05/31 08:42:39;;;;;;;22.27;9.65;;;;;;;16.34;83.09;102332.44;5077039;28;20107;-76
2023/05/31 08:45:05;;;;;;;23.25;10.82;;;;;;;16.40;83.56;102327.44;5079042;28;20365;-75
2023/05/31 08:47:43;;;;;;;25.42;10.52;;;;;;;16.48;84.15;102337.72;5078768;28;20032;-75
2023/05/31 08:50:11;;;;;;;22.80;10.18;;;;;;;16.56;81.54;102337.13;5100458;28;20076;-75
2023/05/31 08:52:38;;;;;;;24.60;10.48;;;;;;;16.63;79.98;102327.53;5098973;28;20107;-75
2023/05/31 08:55:04;;;;;;;24.50;9.95;;;;;;;16.72;81.75;102329.59;5095897;28;20410;-76
2023/05/31 08:57:31;;;;;;;28.35;11.15;;;;;;;16.78;78.95;102320.97;5078887;28;20501;-75
2023/05/31 08:59:57;;;;;;;24.20;10.40;;;;;;;16.81;78.86;102324.41;5098687;28;20045;-74
2023/05/31 09:02:23;;;;;;;23.63;10.27;;;;;;;16.85;82.31;102315.94;5084555;28;20049;-75
2023/05/31 09:04:50;;;;;;;23.52;10.02;;;;;;;16.96;81.47;102312.41;5103395;28;20489;-76
2023/05/31 09:07:15;;;;;;;24.63;9.90;;;;;;;17.03;82.20;102316.41;5083947;28;20390;-76
2023/05/31 09:09:41;;;;;;;22.35;9.02;;;;;;;17.06;76.36;102315.31;5101039;28;20031;-75
2023/05/31 09:12:06;;;;;;;24.42;9.38;;;;;;;17.14;77.10;102314.69;5080646;28;20028;-76
2023/05/31 09:14:33;;;;;;;29.15;10.65;;;;;;;17.22;79.46;102314.94;5084837;28;20093;-75
2023/05/31 09:16:59;;;;;;;23.60;8.93;;;;;;;17.25;80.73;102315.59;5082407;28;20016;-75
2023/05/31 09:19:24;;;;;;;28.15;10.48;;;;;;;17.36;81.01;102313.88;5082569;28;20152;-75
2023/05/31 09:21:51;;;;;;;24.42;8.85;;;;;;;17.37;75.47;102318.31;5086057;28;20129;-75
2023/05/31 09:24:18;;;;;;;22.60;9.48;;;;;;;17.45;77.81;102313.13;5075857;28;20049;-75
2023/05/31 09:26:51;;;;;;;28.92;8.75;;;;;;;17.57;76.64;102311.28;5073028;28;20020;-76
2023/05/31 09:29:17;;;;;;;25.25;9.30;;;;;;;17.57;77.12;102303.13;5082698;28;20023;-76
2023/05/31 09:31:43;;;;;;;29.65;9.40;;;;;;;17.64;78.79;102296.22;5082846;28;20031;-75
2023/05/31 09:34:35;;;;;;;25.35;9.02;;;;;;;17.74;79.44;102299.91;5100882;28;20032;-75
2023/05/31 09:37:01;;;;;;;23.50;8.48;;;;;;;17.85;76.75;102298.19;5065155;28;20056;-75
2023/05/31 09:39:27;;;;;;;25.13;9.15;;;;;;;17.89;77.79;102296.94;5082156;28;20055;-75
2023/05/31 09:41:52;;;;;;;26.48;8.20;;;;;;;17.93;76.52;102290.31;5095440;28;20051;-76
2023/05/31 09:44:18;;;;;;;21.67;8.75;;;;;;;18.02;77.00;102288.69;5092799;28;20024;-75
2023/05/31 09:46:47;;;;;;;21.65;7.75;;;;;;;18.01;69.89;102286.94;5100660;28;20038;-76
2023/05/31 09:49:13;;;;;;;22.70;7.82;;;;;;;18.01;71.90;102279.66;5098478;28;20028;-76
2023/05/31 09:51:39;;;;;;;23.63;7.90;;;;;;;18.12;75.46;102278.78;5083278;28;20084;-75
2023/05/31 09:54:14;;;;;;;22.33;7.05;;;;;;;18.10;74.17;102281.63;5085116;28;20091;-76
2023/05/31 09:56:41;;;;;;;21.42;6.03;;;;;;;18.10;71.58;102284.34;5099185;28;20040;-76
2023/05/31 09:59:07;;;;;;;19.83;6.72;;;;;;;18.18;71.25;102275.53;5086541;28;20035;-82
2023/05/31 10:01:33;;;;;;;19.65;6.25;;;;;;;18.26;70.49;102283.06;5085882;28;20548;-82
2023/05/31 10:04:00;;;;;;;19.85;6.88;;;;;;;18.41;75.62;102284.50;5101963;28;20102;-81
2023/05/31 10:06:26;;;;;;;17.13;4.90;;;;;;;18.33;75.44;102277.00;5082630;28;20498;-81
2023/05/31 10:08:51;;;;;;;16.38;5.80;;;;;;;18.36;75.61;102278.59;5083045;28;20106;-81
2023/05/31 10:11:26;;;;;;;20.52;6.07;;;;;;;18.42;71.57;102279.91;5085525;28;20625;-82
2023/05/31 10:13:56;;;;;;;18.42;6.30;;;;;;;18.52;70.63;102279.03;5103308;28;20484;-81
2023/05/31 10:16:23;;;;;;;20.95;7.38;;;;;;;18.61;73.85;102268.34;5074574;28;20073;-80
2023/05/31 10:18:54;;;;;;;14.88;5.18;;;;;;;18.62;69.20;102276.38;5100920;28;20024;-81
2023/05/31 10:21:25;;;;;;;14.35;4.80;;;;;;;18.58;67.73;102274.94;5102683;28;20038;-80
2023/05/31 10:23:56;;;;;;;18.08;5.80;;;;;;;18.68;69.03;102266.81;5082468;28;20525;-80
2023/05/31 10:26:26;;;;;;;17.00;5.55;;;;;;;18.72;71.57;102260.13;5083409;28;20039;-80
2023/05/31 10:29:04;;;;;;;18.95;5.68;;;;;;;18.83;71.16;102256.50;5103211;28;20024;-80
2023/05/31 10:31:33;;;;;;;15.57;5.05;;;;;;;18.83;69.12;102253.75;5101912;28;20071;-81
2023/05/31 10:34:20;;;;;;;19.73;5.85;;;;;;;18.84;69.64;102248.19;5082775;28;20028;-81
2023/05/31 10:36:45;;;;;;;16.40;5.60;;;;;;;18.93;65.35;102240.22;5075828;28;20020;-81
2023/05/31 10:39:18;;;;;;;17.92;5.30;;;;;;;19.00;66.83;102230.50;5082906;28;20024;-82
2023/05/31 10:41:49;;;;;;;18.27;5.55;;;;;;;19.04;67.54;102226.53;5074637;28;20448;-81
2023/05/31 10:44:22;;;;;;;15.30;4.68;;;;;;;19.19;66.26;102237.94;5101654;28;20047;-81
2023/05/31 10:46:54;;;;;;;18.50;5.03;;;;;;;19.19;65.56;102229.75;5086055;28;20035;-80
2023/05/31 10:49:20;;;;;;;15.25;5.07;;;;;;;19.18;64.25;102226.19;5086813;28;20164;-81
2023/05/31 10:51:46;;;;;;;16.27;5.22;;;;;;;19.24;64.80;102227.50;5085834;28;20039;-82
2023/05/31 10:54:20;;;;;;;15.63;4.75;;;;;;;19.27;64.07;102221.78;5086084;28;20036;-82
2023/05/31 10:56:55;;;;;;;20.98;5.82;;;;;;;19.40;64.89;102221.56;5083965;28;20051;-81
2023/05/31 10:59:23;;;;;;;17.02;4.40;;;;;;;19.45;65.33;102218.41;5082668;28;20479;-83
2023/05/31 11:01:48;;;;;;;17.27;5.30;;;;;;;19.58;64.06;102220.88;5083644;28;20039;-81
2023/05/31 11:04:22;;;;;;;17.25;5.38;;;;;;;19.58;61.89;102213.59;5085765;28;20032;-82
2023/05/31 11:06:52;;;;;;;12.40;3.65;;;;;;;19.52;63.89;102223.19;5103277;28;20088;-81
2023/05/31 11:09:17;;;;;;;16.70;4.80;;;;;;;19.59;58.90;102214.44;5082466;28;20440;-82
2023/05/31 11:11:44;;;;;;;15.38;4.60;;;;;;;19.61;60.72;102204.28;5065644;28;20077;-81